createdAt,value
2023-08-26T00:00:12.680Z,27.11
2023-08-26T00:03:16.025Z,26.91
2023-08-26T00:06:19.393Z,26.80
2023-08-26T00:09:22.207Z,26.98
2023-08-26T00:12:25.451Z,27.14
2023-08-26T00:15:28.701Z,27.44
2023-08-26T00:18:31.593Z,27.68
2023-08-26T00:21:34.921Z,27.67
2023-08-26T00:24:38.816Z,27.61
2023-08-26T00:27:42.302Z,27.69
2023-08-26T00:30:46.337Z,27.78
2023-08-26T00:33:50.392Z,27.44
2023-08-26T00:36:54.168Z,27.24
2023-08-26T00:39:57.278Z,27.59
2023-08-26T00:43:09.973Z,28.26
2023-08-26T00:46:16.079Z,28.02
2023-08-26T00:49:20.180Z,28.23
2023-08-26T00:52:23.694Z,28.51
2023-08-26T00:55:27.229Z,29.25
2023-08-26T00:58:32.487Z,28.58
2023-08-26T01:01:38.700Z,27.89
2023-08-26T01:04:42.509Z,27.75
2023-08-26T01:07:49.316Z,28.33
2023-08-26T01:11:07.640Z,29.43
2023-08-26T01:14:35.397Z,29.52
2023-08-26T01:17:38.388Z,28.94
2023-08-26T01:20:42.964Z,28.72
2023-08-26T01:23:46.901Z,29.23
2023-08-26T01:26:51.821Z,29.36
2023-08-26T01:29:55.367Z,29.60
2023-08-26T01:33:17.163Z,29.59
2023-08-26T01:36:24.051Z,29.23
2023-08-26T01:39:29.457Z,29.02
2023-08-26T01:42:33.552Z,29.51
2023-08-26T01:45:36.955Z,30.43
2023-08-26T01:48:42.008Z,30.82
2023-08-26T01:51:46.413Z,30.57
2023-08-26T01:54:51.012Z,30.26
2023-08-26T01:57:55.231Z,30.81
2023-08-26T02:00:58.288Z,30.42
2023-08-26T02:04:02.727Z,29.38
2023-08-26T02:07:05.793Z,29.11
2023-08-26T02:10:09.692Z,29.12
2023-08-26T02:13:13.726Z,29.31
2023-08-26T02:16:16.996Z,29.11
2023-08-26T02:19:22.377Z,29.05
2023-08-26T02:22:26.318Z,29.01
2023-08-26T02:25:30.128Z,29.10
2023-08-26T02:28:33.607Z,29.98
2023-08-26T02:31:36.780Z,30.21
2023-08-26T02:34:39.632Z,29.97
2023-08-26T02:37:43.121Z,30.27
2023-08-26T02:40:56.463Z,30.04
2023-08-26T02:43:59.293Z,29.33
2023-08-26T02:47:02.146Z,29.36
2023-08-26T02:50:06.869Z,29.29
2023-08-26T02:53:10.690Z,29.45
2023-08-26T02:56:14.624Z,29.53
2023-08-26T02:59:18.306Z,29.32
2023-08-26T03:02:26.418Z,29.26
2023-08-26T03:05:30.976Z,29.49
2023-08-26T03:08:33.780Z,29.63
2023-08-26T03:11:38.882Z,30.14
2023-08-26T03:14:42.197Z,29.84
2023-08-26T03:17:46.208Z,29.49
2023-08-26T03:20:49.178Z,29.48
2023-08-26T03:23:52.700Z,29.52
2023-08-26T03:26:55.859Z,29.50
2023-08-26T03:29:58.707Z,29.55
2023-08-26T03:33:02.081Z,29.27
2023-08-26T03:36:07.344Z,28.89
2023-08-26T03:39:10.582Z,28.56
2023-08-26T03:42:13.701Z,28.26
2023-08-26T03:45:17.781Z,27.93
2023-08-26T03:48:21.575Z,28.26
2023-08-26T03:51:25.171Z,28.39
2023-08-26T03:54:29.997Z,28.34
2023-08-26T03:57:33.134Z,28.07
2023-08-26T04:00:36.657Z,27.94
2023-08-26T04:03:46.215Z,27.75
2023-08-26T04:06:49.772Z,27.52
2023-08-26T04:09:53.439Z,27.24
2023-08-26T04:13:18.943Z,27.23
2023-08-26T04:16:23.222Z,27.13
2023-08-26T04:19:27.271Z,26.98
2023-08-26T04:22:31.200Z,26.93
2023-08-26T04:25:34.971Z,26.75
2023-08-26T04:28:38.635Z,26.66
2023-08-26T04:31:42.563Z,26.50
2023-08-26T04:34:46.341Z,26.33
2023-08-26T04:37:50.165Z,26.27
2023-08-26T04:40:53.443Z,26.18
2023-08-26T04:43:58.133Z,26.32
2023-08-26T04:47:01.534Z,26.35
2023-08-26T04:50:05.759Z,26.18
2023-08-26T04:53:09.208Z,26.03
2023-08-26T04:56:12.116Z,25.98
2023-08-26T04:59:15.633Z,26.01
2023-08-26T05:02:19.243Z,26.10
2023-08-26T05:05:22.701Z,25.98
2023-08-26T05:08:26.199Z,25.84
2023-08-26T05:11:29.838Z,25.79
2023-08-26T05:14:33.624Z,25.74
2023-08-26T05:17:36.763Z,25.70
2023-08-26T05:20:45.881Z,25.75
2023-08-26T05:23:49.468Z,25.83
2023-08-26T05:26:52.790Z,25.77
2023-08-26T05:29:56.507Z,25.63
2023-08-26T05:33:01.488Z,25.55
2023-08-26T05:36:04.648Z,25.53
2023-08-26T05:39:07.552Z,25.58
2023-08-26T05:42:11.453Z,25.40
2023-08-26T05:45:14.897Z,25.33
2023-08-26T05:48:18.929Z,25.43
2023-08-26T05:51:22.203Z,25.44
2023-08-26T05:54:25.030Z,25.38
2023-08-26T05:57:28.052Z,25.36
2023-08-26T06:00:31.772Z,25.37
2023-08-26T06:03:34.854Z,25.23
2023-08-26T06:06:38.756Z,25.17
2023-08-26T06:09:43.126Z,25.23
2023-08-26T06:12:47.019Z,25.29
2023-08-26T06:15:59.916Z,25.29
2023-08-26T06:19:07.437Z,25.28
2023-08-26T06:22:12.721Z,25.19
2023-08-26T06:25:16.677Z,25.11
2023-08-26T06:28:20.610Z,25.17
2023-08-26T06:31:24.522Z,25.25
2023-08-26T06:34:29.930Z,25.23
2023-08-26T06:37:32.905Z,25.18
2023-08-26T06:40:36.396Z,25.16
2023-08-26T06:43:39.828Z,25.14
2023-08-26T06:46:43.067Z,25.12
2023-08-26T06:49:46.552Z,25.13
2023-08-26T06:52:51.226Z,25.08
2023-08-26T06:55:55.550Z,25.06
2023-08-26T06:58:59.595Z,25.11
2023-08-26T07:02:02.811Z,25.10
2023-08-26T07:05:06.435Z,25.13
2023-08-26T07:08:10.288Z,25.15
2023-08-26T07:11:14.788Z,25.17
2023-08-26T07:14:18.192Z,25.15
2023-08-26T07:17:21.363Z,25.09
2023-08-26T07:20:26.211Z,25.08
2023-08-26T07:23:29.962Z,25.05
2023-08-26T07:26:33.441Z,25.07
2023-08-26T07:29:37.232Z,25.13
2023-08-26T07:32:41.644Z,25.13
2023-08-26T07:35:45.481Z,25.16
2023-08-26T07:38:49.264Z,25.15
2023-08-26T07:41:53.392Z,25.17
2023-08-26T07:44:56.903Z,25.19
2023-08-26T07:51:05.674Z,25.20
2023-08-26T07:54:09.205Z,25.18
2023-08-26T07:57:13.020Z,25.20
2023-08-26T08:00:16.130Z,25.14
2023-08-26T08:03:19.071Z,25.08
2023-08-26T08:06:22.032Z,25.06
2023-08-26T08:09:25.561Z,25.05
2023-08-26T08:12:28.448Z,25.04
2023-08-26T08:15:32.200Z,25.05
2023-08-26T08:18:35.724Z,25.05
2023-08-26T08:21:38.830Z,25.08
2023-08-26T08:24:42.332Z,25.13
2023-08-26T08:27:46.166Z,25.10
2023-08-26T08:30:51.421Z,25.14
2023-08-26T08:33:55.173Z,25.17
2023-08-26T08:36:59.064Z,25.19
2023-08-26T08:40:02.665Z,25.20
2023-08-26T08:43:08.344Z,25.14
2023-08-26T08:46:11.633Z,25.05
2023-08-26T08:49:15.562Z,25.05
2023-08-26T08:52:21.453Z,25.08
2023-08-26T08:55:25.319Z,25.18
2023-08-26T08:58:30.676Z,25.26
2023-08-26T09:01:34.806Z,25.33
2023-08-26T09:04:38.735Z,25.37
2023-08-26T09:07:43.382Z,25.39
2023-08-26T09:10:49.273Z,25.35
2023-08-26T09:13:52.932Z,25.27
2023-08-26T09:16:56.741Z,25.19
2023-08-26T09:20:02.074Z,25.13
2023-08-26T09:23:06.427Z,25.10
2023-08-26T09:26:09.650Z,25.08
2023-08-26T09:29:21.729Z,24.98
2023-08-26T09:32:35.230Z,24.83
2023-08-26T09:38:56.584Z,24.55
2023-08-26T09:42:02.032Z,24.43
2023-08-26T09:45:09.489Z,24.34
2023-08-26T09:48:22.799Z,24.21
2023-08-26T09:51:29.492Z,24.10
2023-08-26T09:54:34.507Z,24.01
2023-08-26T09:57:38.251Z,23.99
2023-08-26T10:00:41.853Z,24.01
2023-08-26T10:03:50.285Z,23.94
2023-08-26T10:07:00.163Z,23.88
2023-08-26T10:10:15.019Z,23.84
2023-08-26T10:13:23.568Z,23.79
2023-08-26T10:16:35.746Z,23.75
2023-08-26T10:19:40.987Z,23.74
2023-08-26T10:22:44.933Z,23.75
2023-08-26T10:25:47.995Z,23.78
2023-08-26T10:28:52.506Z,23.81
2023-08-26T10:31:56.122Z,23.80
2023-08-26T10:35:01.598Z,23.77
2023-08-26T10:38:14.979Z,23.72
2023-08-26T10:41:18.873Z,23.61
2023-08-26T10:44:32.409Z,23.54
2023-08-26T10:47:47.385Z,23.47
2023-08-26T10:51:01.618Z,23.38
2023-08-26T10:54:06.885Z,23.29
2023-08-26T10:57:10.712Z,23.20
2023-08-26T11:00:15.030Z,23.11
2023-08-26T11:03:27.518Z,23.04
2023-08-26T11:06:38.813Z,22.98
2023-08-26T11:09:42.361Z,22.87
2023-08-26T11:12:48.683Z,22.79
2023-08-26T11:15:53.450Z,22.69
2023-08-26T11:18:59.187Z,22.53
2023-08-26T11:22:04.392Z,22.32
2023-08-26T11:25:09.053Z,22.12
2023-08-26T11:28:13.224Z,21.94
2023-08-26T11:31:17.776Z,21.81
2023-08-26T11:34:30.437Z,21.65
2023-08-26T11:37:48.774Z,21.42
2023-08-26T11:40:52.682Z,21.18
2023-08-26T11:43:56.409Z,21.03
2023-08-26T11:46:59.544Z,20.96
2023-08-26T11:50:04.230Z,20.91
2023-08-26T11:53:08.044Z,20.81
2023-08-26T11:56:11.689Z,20.69
2023-08-26T11:59:24.106Z,20.65
2023-08-26T12:02:28.227Z,20.56
2023-08-26T12:05:54.340Z,20.52
2023-08-26T12:08:59.439Z,20.40
2023-08-26T12:12:09.170Z,20.32
2023-08-26T12:15:18.383Z,20.20
2023-08-26T12:18:23.413Z,20.05
2023-08-26T12:21:32.830Z,19.99
2023-08-26T12:24:42.360Z,19.93
2023-08-26T12:27:47.117Z,19.85
2023-08-26T12:30:51.259Z,19.76
2023-08-26T12:34:00.314Z,19.43
2023-08-26T12:37:04.962Z,19.38
2023-08-26T12:40:09.415Z,19.37
2023-08-26T12:43:13.871Z,19.38
2023-08-26T12:46:18.386Z,19.30
2023-08-26T12:49:27.873Z,19.25
2023-08-26T12:52:32.991Z,19.19
2023-08-26T12:55:36.607Z,19.09
2023-08-26T12:58:41.144Z,19.05
2023-08-26T13:01:45.457Z,18.94
2023-08-26T13:04:50.023Z,18.86
2023-08-26T13:07:54.221Z,18.89
2023-08-26T13:10:58.527Z,18.94
2023-08-26T13:14:02.813Z,18.99
2023-08-26T13:17:07.022Z,18.94
2023-08-26T13:20:13.815Z,18.89
2023-08-26T13:23:17.402Z,18.82
2023-08-26T13:26:21.900Z,18.82
2023-08-26T13:29:27.360Z,18.73
2023-08-26T13:32:31.950Z,18.66
2023-08-26T13:35:36.111Z,18.59
2023-08-26T13:38:40.683Z,18.55
2023-08-26T13:41:44.766Z,18.40
2023-08-26T13:44:49.585Z,18.22
2023-08-26T13:47:54.124Z,18.17
2023-08-26T13:51:00.468Z,18.12
2023-08-26T13:54:04.645Z,18.09
2023-08-26T13:57:10.351Z,18.06
2023-08-26T14:00:16.264Z,17.94
2023-08-26T14:03:20.225Z,17.92
2023-08-26T14:06:24.559Z,17.69
2023-08-26T14:09:29.188Z,17.51
2023-08-26T14:12:33.628Z,17.43
2023-08-26T14:15:42.319Z,17.32
2023-08-26T14:18:47.323Z,17.24
2023-08-26T14:22:15.818Z,17.22
2023-08-26T14:25:21.251Z,17.28
2023-08-26T14:28:25.463Z,17.34
2023-08-26T14:31:29.189Z,17.32
2023-08-26T14:34:33.053Z,17.21
2023-08-26T14:37:37.588Z,17.07
2023-08-26T14:40:45.279Z,17.06
2023-08-26T14:43:50.681Z,17.11
2023-08-26T14:46:54.194Z,17.04
2023-08-26T14:49:58.894Z,16.90
2023-08-26T14:53:03.826Z,16.77
2023-08-26T14:56:08.151Z,16.67
2023-08-26T14:59:11.687Z,16.63
2023-08-26T15:02:17.729Z,16.60
2023-08-26T15:05:21.049Z,16.51
2023-08-26T15:08:24.720Z,16.47
2023-08-26T15:11:27.991Z,16.35
2023-08-26T15:14:31.490Z,16.26
2023-08-26T15:17:34.690Z,16.21
2023-08-26T15:20:38.564Z,16.17
2023-08-26T15:23:42.407Z,16.11
2023-08-26T15:26:45.238Z,15.94
2023-08-26T15:29:49.037Z,15.84
2023-08-26T15:32:52.483Z,15.75
2023-08-26T15:35:56.250Z,15.73
2023-08-26T15:38:59.755Z,15.77
2023-08-26T15:42:05.182Z,15.76
2023-08-26T15:45:08.630Z,15.63
2023-08-26T15:48:12.422Z,15.39
2023-08-26T15:51:15.602Z,15.25
2023-08-26T15:54:19.078Z,15.33
2023-08-26T15:57:22.665Z,15.34
2023-08-26T16:00:26.230Z,15.32
2023-08-26T16:03:29.360Z,15.34
2023-08-26T16:06:32.375Z,15.29
2023-08-26T16:09:35.166Z,15.30
2023-08-26T16:12:38.149Z,15.22
2023-08-26T16:15:41.413Z,15.12
2023-08-26T16:18:44.945Z,15.10
2023-08-26T16:21:48.408Z,15.06
2023-08-26T16:24:51.231Z,15.00
2023-08-26T16:27:54.826Z,14.91
2023-08-26T16:30:58.264Z,14.73
2023-08-26T16:34:01.147Z,14.66
2023-08-26T16:37:08.185Z,14.56
2023-08-26T16:40:12.366Z,14.44
2023-08-26T16:43:15.794Z,14.40
2023-08-26T16:46:19.276Z,14.39
2023-08-26T16:49:22.773Z,14.42
2023-08-26T16:52:26.514Z,14.37
2023-08-26T16:55:29.951Z,14.40
2023-08-26T16:58:32.812Z,14.46
2023-08-26T17:01:37.049Z,14.48
2023-08-26T17:04:40.721Z,14.36
2023-08-26T17:07:44.499Z,14.24
2023-08-26T17:10:47.934Z,14.23
2023-08-26T17:13:51.804Z,14.24
2023-08-26T17:16:54.787Z,14.16
2023-08-26T17:19:58.664Z,14.08
2023-08-26T17:23:02.267Z,13.86
2023-08-26T17:26:05.763Z,13.84
2023-08-26T17:29:09.599Z,13.79
2023-08-26T17:32:13.104Z,13.68
2023-08-26T17:35:17.322Z,13.57
2023-08-26T17:38:20.827Z,13.59
2023-08-26T17:41:23.979Z,13.52
2023-08-26T17:44:27.043Z,13.54
2023-08-26T17:47:30.229Z,13.63
2023-08-26T17:50:33.680Z,13.63
2023-08-26T17:53:37.288Z,13.52
2023-08-26T17:56:40.079Z,13.55
2023-08-26T17:59:43.797Z,13.50
2023-08-26T18:02:46.657Z,13.52
2023-08-26T18:05:49.792Z,13.48
2023-08-26T18:08:52.858Z,13.35
2023-08-26T18:11:56.681Z,13.31
2023-08-26T18:15:00.171Z,13.27
2023-08-26T18:18:04.012Z,13.20
2023-08-26T18:21:08.657Z,13.12
2023-08-26T18:24:11.501Z,13.12
2023-08-26T18:27:15.227Z,13.10
2023-08-26T18:30:19.740Z,13.02
2023-08-26T18:33:22.554Z,12.87
2023-08-26T18:36:25.712Z,12.76
2023-08-26T18:39:29.140Z,12.80
2023-08-26T18:42:33.082Z,12.78
2023-08-26T18:45:35.869Z,12.69
2023-08-26T18:48:38.723Z,12.66
2023-08-26T18:51:41.868Z,12.57
2023-08-26T18:54:45.354Z,12.52
2023-08-26T18:57:48.529Z,12.56
2023-08-26T19:00:53.479Z,12.64
2023-08-26T19:03:57.654Z,12.69
2023-08-26T19:07:01.611Z,12.64
2023-08-26T19:10:05.499Z,12.57
2023-08-26T19:13:10.863Z,12.50
2023-08-26T19:16:13.924Z,12.46
2023-08-26T19:19:17.394Z,12.51
2023-08-26T19:22:21.357Z,12.51
2023-08-26T19:25:24.239Z,12.50
2023-08-26T19:28:27.962Z,12.37
2023-08-26T19:31:31.431Z,12.36
2023-08-26T19:34:34.341Z,12.39
2023-08-26T19:37:37.225Z,12.37
2023-08-26T19:40:40.122Z,12.38
2023-08-26T19:43:44.566Z,12.29
2023-08-26T19:46:48.136Z,12.18
2023-08-26T19:49:50.994Z,12.18
2023-08-26T19:52:54.495Z,12.15
2023-08-26T19:55:59.129Z,12.11
2023-08-26T19:59:02.857Z,12.17
2023-08-26T20:02:06.356Z,12.25
2023-08-26T20:05:10.217Z,12.23
2023-08-26T20:08:13.891Z,12.20
2023-08-26T20:11:16.677Z,12.17
2023-08-26T20:14:20.412Z,12.06
2023-08-26T20:17:23.961Z,12.01
2023-08-26T20:20:27.406Z,12.05
2023-08-26T20:23:31.065Z,11.99
2023-08-26T20:26:34.488Z,11.81
2023-08-26T20:29:37.968Z,11.87
2023-08-26T20:32:41.696Z,11.87
2023-08-26T20:35:45.495Z,11.90
2023-08-26T20:38:50.790Z,11.98
2023-08-26T20:41:54.311Z,12.01
2023-08-26T20:44:59.239Z,11.86
2023-08-26T20:48:02.759Z,11.80
2023-08-26T20:51:05.969Z,11.81
2023-08-26T20:54:08.871Z,11.78
2023-08-26T20:57:12.257Z,11.71
2023-08-26T21:00:15.828Z,11.66
2023-08-26T21:03:20.156Z,11.67
2023-08-26T21:06:23.028Z,11.53
2023-08-26T21:09:26.763Z,11.44
2023-08-26T21:12:30.254Z,11.39
2023-08-26T21:15:33.797Z,11.35
2023-08-26T21:18:37.948Z,11.37
2023-08-26T21:21:41.699Z,11.36
2023-08-26T21:24:45.134Z,11.29
2023-08-26T21:27:48.903Z,11.19
2023-08-26T21:30:55.818Z,11.09
2023-08-26T21:33:59.539Z,11.02
2023-08-26T21:37:03.047Z,11.11
2023-08-26T21:40:07.957Z,11.21
2023-08-26T21:43:14.428Z,11.32
2023-08-26T21:46:17.363Z,11.33
2023-08-26T21:49:20.306Z,11.42
2023-08-26T21:52:25.478Z,11.47
2023-08-26T21:55:29.070Z,11.51
2023-08-26T21:58:32.833Z,11.58
2023-08-26T22:01:36.225Z,11.63
2023-08-26T22:04:39.948Z,11.66
2023-08-26T22:07:42.724Z,11.56
2023-08-26T22:10:47.083Z,11.55
2023-08-26T22:13:50.523Z,11.60
2023-08-26T22:16:53.355Z,11.64
2023-08-26T22:19:56.305Z,11.66
2023-08-26T22:23:00.318Z,11.71
2023-08-26T22:26:04.246Z,11.86
2023-08-26T22:29:07.401Z,11.98
2023-08-26T22:32:10.191Z,12.08
2023-08-26T22:35:14.187Z,12.14
2023-08-26T22:38:19.612Z,12.15
2023-08-26T22:41:23.365Z,12.15
2023-08-26T22:44:26.705Z,12.05
2023-08-26T22:47:30.812Z,12.07
2023-08-26T22:50:34.002Z,12.03
2023-08-26T22:53:39.588Z,11.89
2023-08-26T22:56:43.108Z,11.95
2023-08-26T22:59:47.440Z,12.02
2023-08-26T23:02:50.311Z,12.05
2023-08-26T23:06:02.824Z,12.15
2023-08-26T23:09:06.370Z,12.32
2023-08-26T23:12:10.365Z,12.56
2023-08-26T23:15:14.109Z,13.50
2023-08-26T23:18:17.888Z,16.66
2023-08-26T23:21:21.274Z,18.66
2023-08-26T23:24:24.604Z,20.28
2023-08-26T23:27:29.280Z,21.68
2023-08-26T23:30:33.080Z,22.53
2023-08-26T23:33:35.894Z,23.32
2023-08-26T23:36:38.986Z,23.65
2023-08-26T23:39:42.545Z,24.23
2023-08-26T23:42:46.053Z,24.59
2023-08-26T23:45:49.508Z,25.40
2023-08-26T23:48:53.583Z,25.85
2023-08-26T23:51:56.451Z,26.11
2023-08-26T23:55:00.223Z,26.24
2023-08-26T23:58:03.375Z,26.08
